createdAt,value
2022-12-11T00:02:06.769Z,18.63
2022-12-11T00:04:36.193Z,18.42
2022-12-11T00:07:05.080Z,17.70
2022-12-11T00:09:35.622Z,17.25
2022-12-11T00:12:05.677Z,18.27
2022-12-11T00:14:34.774Z,18.55
2022-12-11T00:17:03.632Z,19.15
2022-12-11T00:19:32.803Z,17.70
2022-12-11T00:22:01.542Z,17.45
2022-12-11T00:24:30.695Z,17.77
2022-12-11T00:27:01.024Z,17.55
2022-12-11T00:29:30.099Z,17.35
2022-12-11T00:31:58.680Z,17.97
2022-12-11T00:34:28.109Z,19.23
2022-12-11T00:36:57.071Z,18.20
2022-12-11T00:39:25.901Z,17.40
2022-12-11T00:41:55.223Z,18.10
2022-12-11T00:44:25.862Z,18.13
2022-12-11T00:46:54.843Z,17.83
2022-12-11T00:49:24.072Z,17.55
2022-12-11T00:51:52.937Z,17.23
2022-12-11T00:54:22.238Z,17.65
2022-12-11T00:56:51.256Z,16.57
2022-12-11T00:59:19.892Z,17.55
2022-12-11T01:01:50.187Z,18.23
2022-12-11T01:04:19.249Z,17.60
2022-12-11T01:06:48.297Z,18.52
2022-12-11T01:09:34.975Z,16.97
2022-12-11T01:12:05.829Z,15.77
2022-12-11T01:14:34.486Z,17.05
2022-12-11T01:17:05.900Z,17.75
2022-12-11T01:19:35.000Z,17.10
2022-12-11T01:22:03.599Z,16.97
2022-12-11T01:24:32.872Z,16.77
2022-12-11T01:27:01.563Z,17.10
2022-12-11T01:29:31.036Z,15.40
2022-12-11T01:31:59.836Z,15.90
2022-12-11T01:34:32.222Z,15.43
2022-12-11T01:37:01.743Z,15.05
2022-12-11T01:39:30.951Z,15.32
2022-12-11T01:42:00.819Z,15.32
2022-12-11T01:45:06.961Z,17.45
2022-12-11T01:47:36.144Z,16.67
2022-12-11T01:50:06.965Z,16.92
2022-12-11T01:52:36.335Z,16.23
2022-12-11T01:55:05.783Z,16.35
2022-12-11T01:57:34.980Z,15.70
2022-12-11T02:00:04.247Z,15.63
2022-12-11T02:02:49.143Z,15.43
2022-12-11T02:05:25.595Z,15.77
2022-12-11T02:07:58.348Z,16.85
2022-12-11T02:10:50.030Z,15.05
2022-12-11T02:13:25.115Z,16.20
2022-12-11T02:16:02.799Z,15.52
2022-12-11T02:18:36.772Z,15.00
2022-12-11T02:21:14.556Z,14.85
2022-12-11T02:24:15.961Z,15.73
2022-12-11T02:27:33.402Z,14.53
2022-12-11T02:30:07.720Z,13.85
2022-12-11T02:32:41.248Z,14.68
2022-12-11T02:35:15.375Z,15.57
2022-12-11T02:37:48.812Z,14.48
2022-12-11T02:40:23.473Z,15.10
2022-12-11T02:42:55.613Z,14.93
2022-12-11T02:45:28.830Z,15.30
2022-12-11T02:48:00.342Z,14.02
2022-12-11T02:50:30.394Z,14.05
2022-12-11T02:53:01.468Z,14.50
2022-12-11T02:55:32.632Z,14.70
2022-12-11T02:58:05.828Z,14.68
2022-12-11T03:00:36.522Z,14.10
2022-12-11T03:03:05.785Z,14.35
2022-12-11T03:05:35.202Z,14.47
2022-12-11T03:08:04.374Z,14.50
2022-12-11T03:10:33.540Z,15.68
2022-12-11T03:13:04.149Z,14.90
2022-12-11T03:15:42.843Z,13.70
2022-12-11T03:18:19.431Z,13.83
2022-12-11T03:20:55.929Z,13.38
2022-12-11T03:23:32.469Z,13.70
2022-12-11T03:26:05.182Z,13.43
2022-12-11T03:28:43.948Z,13.43
2022-12-11T03:31:17.168Z,13.03
2022-12-11T03:33:50.496Z,14.30
2022-12-11T03:36:24.142Z,12.27
2022-12-11T03:38:57.484Z,12.98
2022-12-11T03:41:28.885Z,12.00
2022-12-11T03:43:59.906Z,12.80
2022-12-11T03:46:35.093Z,12.18
2022-12-11T03:49:08.220Z,12.07
2022-12-11T03:51:37.757Z,11.60
2022-12-11T03:54:07.162Z,12.23
2022-12-11T03:56:38.724Z,11.07
2022-12-11T03:59:07.889Z,11.13
2022-12-11T04:01:37.966Z,11.40
2022-12-11T04:04:07.258Z,10.57
2022-12-11T04:06:35.987Z,10.88
2022-12-11T04:09:05.307Z,9.87
2022-12-11T04:11:37.198Z,10.70
2022-12-11T04:14:26.102Z,10.38
2022-12-11T04:16:57.016Z,10.52
2022-12-11T04:19:44.531Z,11.77
2022-12-11T04:22:28.264Z,10.80
2022-12-11T04:24:57.469Z,11.60
2022-12-11T04:27:44.110Z,11.05
2022-12-11T04:30:17.147Z,11.73
2022-12-11T04:32:47.822Z,11.18
2022-12-11T04:35:16.822Z,11.83
2022-12-11T04:37:45.702Z,11.68
2022-12-11T04:40:17.357Z,11.80
2022-12-11T04:42:47.501Z,12.73
2022-12-11T04:45:16.474Z,13.40
2022-12-11T04:47:45.547Z,12.43
2022-12-11T04:50:16.911Z,13.00
2022-12-11T04:52:45.938Z,13.35
2022-12-11T04:55:15.180Z,13.43
2022-12-11T04:57:44.259Z,13.00
2022-12-11T05:00:14.214Z,13.20
2022-12-11T05:02:43.901Z,13.60
2022-12-11T05:05:13.335Z,14.30
2022-12-11T05:07:44.090Z,14.75
2022-12-11T05:10:13.492Z,15.07
2022-12-11T05:12:42.115Z,13.90
2022-12-11T05:15:11.876Z,14.65
2022-12-11T05:17:40.775Z,15.63
2022-12-11T05:20:10.962Z,13.82
2022-12-11T05:22:40.442Z,15.20
2022-12-11T05:25:11.456Z,14.53
2022-12-11T05:27:40.487Z,15.07
2022-12-11T05:30:10.571Z,15.20
2022-12-11T05:32:39.993Z,14.25
2022-12-11T05:35:09.762Z,14.50
2022-12-11T05:37:38.972Z,15.30
2022-12-11T05:40:09.002Z,14.45
2022-12-11T05:42:39.443Z,13.93
2022-12-11T05:45:10.041Z,13.15
2022-12-11T05:47:39.654Z,14.25
2022-12-11T05:50:09.353Z,13.10
2022-12-11T05:52:38.346Z,12.38
2022-12-11T05:55:09.961Z,11.70
2022-12-11T05:57:40.930Z,12.25
2022-12-11T06:00:11.789Z,12.23
2022-12-11T06:02:40.520Z,12.20
2022-12-11T06:05:10.242Z,12.57
2022-12-11T06:07:39.182Z,12.57
2022-12-11T06:10:09.022Z,12.32
2022-12-11T06:12:38.114Z,12.25
2022-12-11T06:15:09.757Z,11.53
2022-12-11T06:17:39.066Z,12.45
2022-12-11T06:20:08.392Z,12.80
2022-12-11T06:22:37.661Z,11.38
2022-12-11T06:25:07.613Z,12.60
2022-12-11T06:27:36.656Z,12.53
2022-12-11T06:30:05.884Z,13.45
2022-12-11T06:32:36.709Z,12.68
2022-12-11T06:35:06.351Z,14.40
2022-12-11T06:37:36.667Z,14.98
2022-12-11T06:40:06.825Z,13.37
2022-12-11T06:42:35.990Z,14.15
2022-12-11T06:45:05.804Z,15.02
2022-12-11T06:47:36.783Z,13.70
2022-12-11T06:50:06.440Z,14.73
2022-12-11T06:52:36.415Z,14.60
2022-12-11T06:55:05.740Z,13.93
2022-12-11T06:57:34.996Z,15.40
2022-12-11T07:00:03.805Z,15.23
2022-12-11T07:02:32.836Z,16.05
2022-12-11T07:05:02.940Z,16.50
2022-12-11T07:07:31.856Z,16.08
2022-12-11T07:10:07.638Z,14.50
2022-12-11T07:12:38.209Z,15.60
2022-12-11T07:15:07.989Z,16.33
2022-12-11T07:17:37.203Z,14.50
2022-12-11T07:20:09.524Z,15.02
2022-12-11T07:22:44.666Z,15.02
2022-12-11T07:25:16.054Z,15.35
2022-12-11T07:27:44.686Z,14.65
2022-12-11T07:30:15.720Z,14.27
2022-12-11T07:32:45.178Z,14.35
2022-12-11T07:35:15.653Z,15.48
2022-12-11T07:37:46.163Z,13.50
2022-12-11T07:40:15.395Z,14.65
2022-12-11T07:42:46.417Z,13.97
2022-12-11T07:45:16.471Z,14.35
2022-12-11T07:47:45.185Z,14.23
2022-12-11T07:50:15.543Z,14.80
2022-12-11T07:52:44.792Z,15.15
2022-12-11T07:55:13.795Z,14.77
2022-12-11T07:57:43.056Z,13.60
2022-12-11T08:00:13.210Z,15.07
2022-12-11T08:02:41.944Z,14.20
2022-12-11T08:05:13.542Z,16.13
2022-12-11T08:07:44.387Z,14.33
2022-12-11T08:10:13.405Z,15.00
2022-12-11T08:12:42.240Z,14.13
2022-12-11T08:15:12.257Z,14.98
2022-12-11T08:17:41.418Z,13.80
2022-12-11T08:20:11.371Z,13.77
2022-12-11T08:22:40.724Z,12.98
2022-12-11T08:25:11.504Z,14.95
2022-12-11T08:27:40.606Z,13.35
2022-12-11T08:30:10.329Z,13.68
2022-12-11T08:32:39.417Z,12.57
2022-12-11T08:35:10.082Z,13.10
2022-12-11T08:37:39.390Z,13.25
2022-12-11T08:40:12.482Z,12.23
2022-12-11T08:42:41.922Z,12.75
2022-12-11T08:45:11.839Z,13.27
2022-12-11T08:47:41.402Z,12.48
2022-12-11T08:50:10.982Z,12.57
2022-12-11T08:52:40.010Z,13.07
2022-12-11T08:55:11.681Z,12.15
2022-12-11T08:57:42.138Z,11.73
2022-12-11T09:00:13.949Z,11.40
2022-12-11T09:02:43.220Z,11.73
2022-12-11T09:05:12.469Z,10.88
2022-12-11T09:07:42.457Z,10.05
2022-12-11T09:10:12.638Z,9.20
2022-12-11T09:12:42.900Z,10.85
2022-12-11T09:15:13.297Z,10.40
2022-12-11T09:17:42.600Z,10.50
2022-12-11T09:20:11.766Z,10.30
2022-12-11T09:22:41.389Z,9.73
2022-12-11T09:25:11.093Z,10.63
2022-12-11T09:27:41.992Z,10.13
2022-12-11T09:30:11.515Z,9.75
2022-12-11T09:32:40.784Z,10.05
2022-12-11T09:35:11.676Z,9.83
2022-12-11T09:37:40.534Z,9.82
2022-12-11T09:40:12.389Z,10.25
2022-12-11T09:42:52.801Z,10.43
2022-12-11T09:45:22.382Z,10.07
2022-12-11T09:47:54.607Z,9.43
2022-12-11T09:50:27.147Z,9.85
2022-12-11T09:53:05.910Z,10.05
2022-12-11T09:55:43.731Z,9.63
2022-12-11T09:58:24.375Z,10.52
2022-12-11T10:00:59.723Z,10.17
2022-12-11T10:03:57.936Z,10.27
2022-12-11T10:06:32.115Z,11.27
2022-12-11T10:09:10.299Z,11.10
2022-12-11T10:11:56.407Z,11.02
2022-12-11T10:14:36.688Z,9.80
2022-12-11T10:17:12.566Z,10.35
2022-12-11T10:19:42.861Z,10.70
2022-12-11T10:22:20.108Z,10.55
2022-12-11T10:25:10.615Z,10.63
2022-12-11T10:27:42.081Z,10.37
2022-12-11T10:30:18.297Z,10.63
2022-12-11T10:32:53.964Z,10.27
2022-12-11T10:35:32.921Z,9.60
2022-12-11T10:38:13.614Z,9.05
2022-12-11T10:40:46.405Z,9.87
2022-12-11T10:43:15.811Z,9.52
2022-12-11T10:45:54.078Z,9.30
2022-12-11T10:48:24.031Z,10.25
2022-12-11T10:51:02.414Z,8.48
2022-12-11T10:53:33.173Z,9.47
2022-12-11T10:56:03.265Z,10.30
2022-12-11T10:58:34.625Z,10.10
2022-12-11T11:01:10.971Z,9.20
2022-12-11T11:03:56.214Z,9.45
2022-12-11T11:06:27.172Z,8.77
2022-12-11T11:08:58.243Z,8.88
2022-12-11T11:11:30.375Z,8.45
2022-12-11T11:14:15.510Z,8.60
2022-12-11T11:16:48.305Z,8.80
2022-12-11T11:19:24.941Z,7.47
2022-12-11T11:21:56.619Z,8.50
2022-12-11T11:24:30.170Z,9.00
2022-12-11T11:27:14.962Z,8.77
2022-12-11T11:29:46.696Z,7.93
2022-12-11T11:32:23.954Z,8.07
2022-12-11T11:34:53.195Z,7.55
2022-12-11T11:37:32.082Z,7.03
2022-12-11T11:40:08.082Z,7.40
2022-12-11T11:42:46.620Z,7.18
2022-12-11T11:45:22.398Z,6.40
2022-12-11T11:48:03.133Z,6.10
2022-12-11T11:50:37.758Z,6.05
2022-12-11T11:53:11.838Z,6.35
2022-12-11T11:55:48.633Z,6.88
2022-12-11T11:58:23.086Z,6.73
2022-12-11T12:00:54.846Z,6.85
2022-12-11T12:03:27.050Z,6.00
2022-12-11T12:05:59.894Z,6.78
2022-12-11T12:08:43.370Z,7.20
2022-12-11T12:11:21.941Z,6.67
2022-12-11T12:14:00.667Z,6.53
2022-12-11T12:16:52.793Z,7.18
2022-12-11T12:19:39.826Z,6.65
2022-12-11T12:22:19.806Z,6.82
2022-12-11T12:24:56.622Z,7.43
2022-12-11T12:30:24.072Z,7.90
2022-12-11T12:33:09.127Z,8.25
2022-12-11T12:35:41.838Z,8.50
2022-12-11T12:38:20.577Z,8.13
2022-12-11T12:40:57.051Z,8.95
2022-12-11T12:43:56.159Z,9.52
2022-12-11T12:46:35.439Z,9.07
2022-12-11T12:49:06.443Z,9.75
2022-12-11T12:51:38.282Z,9.27
2022-12-11T12:54:12.489Z,9.02
2022-12-11T12:56:43.870Z,9.57
2022-12-11T12:59:24.494Z,9.45
2022-12-11T13:01:57.323Z,9.80
2022-12-11T13:04:55.613Z,8.20
2022-12-11T13:07:30.328Z,10.18
2022-12-11T13:10:04.638Z,9.05
2022-12-11T13:12:43.061Z,9.48
2022-12-11T13:15:27.545Z,10.13
2022-12-11T13:17:56.669Z,10.40
2022-12-11T13:20:27.203Z,10.73
2022-12-11T13:23:16.527Z,10.75
2022-12-11T13:26:04.678Z,11.00
2022-12-11T13:28:47.386Z,10.90
2022-12-11T13:31:37.542Z,10.10
2022-12-11T13:34:17.997Z,9.90
2022-12-11T13:36:51.313Z,10.75
2022-12-11T13:39:25.303Z,10.32
2022-12-11T13:41:57.056Z,10.90
2022-12-11T13:44:30.896Z,9.67
2022-12-11T13:47:01.607Z,10.93
2022-12-11T13:49:35.426Z,10.43
2022-12-11T13:52:05.792Z,10.52
2022-12-11T13:54:37.704Z,10.15
2022-12-11T13:57:18.950Z,10.70
2022-12-11T13:59:50.682Z,10.43
2022-12-11T14:02:23.842Z,9.65
2022-12-11T14:04:57.110Z,10.27
2022-12-11T14:07:30.022Z,10.68
2022-12-11T14:10:03.672Z,10.53
2022-12-11T14:12:33.612Z,10.00
2022-12-11T14:15:05.256Z,9.50
2022-12-11T14:17:36.249Z,10.52
2022-12-11T14:20:08.585Z,11.00
2022-12-11T14:22:37.859Z,10.37
2022-12-11T14:25:22.373Z,10.23
2022-12-11T14:27:53.681Z,10.55
2022-12-11T14:30:24.894Z,11.55
2022-12-11T14:32:58.322Z,11.13
2022-12-11T14:35:35.555Z,11.20
2022-12-11T14:38:14.862Z,10.57
2022-12-11T14:40:48.551Z,10.52
2022-12-11T14:43:24.734Z,9.75
2022-12-11T14:45:59.453Z,9.80
2022-12-11T14:48:32.346Z,10.33
2022-12-11T14:51:05.224Z,10.05
2022-12-11T14:53:39.415Z,10.05
2022-12-11T14:56:17.532Z,9.38
2022-12-11T14:58:54.768Z,10.13
2022-12-11T15:01:25.867Z,10.93
2022-12-11T15:04:05.059Z,10.18
2022-12-11T15:06:35.729Z,10.88
2022-12-11T15:09:21.605Z,10.23
2022-12-11T15:11:53.597Z,10.52
2022-12-11T15:14:26.369Z,11.00
2022-12-11T15:16:58.942Z,10.68
2022-12-11T15:19:32.493Z,10.70
2022-12-11T15:22:06.183Z,10.18
2022-12-11T15:24:39.482Z,11.43
2022-12-11T15:27:27.092Z,11.50
2022-12-11T15:29:57.024Z,10.95
2022-12-11T15:32:26.137Z,11.32
2022-12-11T15:34:56.746Z,11.50
2022-12-11T15:37:27.841Z,11.13
2022-12-11T15:39:58.801Z,11.43
2022-12-11T15:42:33.077Z,13.10
2022-12-11T15:45:03.165Z,12.30
2022-12-11T15:47:32.973Z,12.38
2022-12-11T15:50:09.521Z,12.50
2022-12-11T15:52:39.246Z,12.63
2022-12-11T15:55:08.720Z,12.18
2022-12-11T15:57:42.514Z,13.07
2022-12-11T16:00:19.405Z,11.95
2022-12-11T16:02:49.515Z,11.35
2022-12-11T16:05:18.328Z,11.80
2022-12-11T16:07:49.147Z,11.88
2022-12-11T16:10:21.156Z,11.88
2022-12-11T16:12:51.827Z,12.15
2022-12-11T16:15:23.775Z,11.95
2022-12-11T16:18:01.105Z,11.97
2022-12-11T16:20:32.153Z,11.73
2022-12-11T16:23:02.695Z,13.15
2022-12-11T16:25:31.949Z,12.95
2022-12-11T16:28:03.289Z,12.98
2022-12-11T16:30:32.937Z,13.27
2022-12-11T16:33:03.015Z,13.55
2022-12-11T16:35:34.323Z,13.73
2022-12-11T16:38:02.949Z,14.75
2022-12-11T16:40:31.901Z,15.13
2022-12-11T16:43:02.191Z,14.30
2022-12-11T16:45:31.016Z,14.10
2022-12-11T16:47:59.987Z,14.02
2022-12-11T16:50:29.014Z,14.77
2022-12-11T16:52:58.580Z,14.43
2022-12-11T16:55:27.672Z,13.83
2022-12-11T16:57:56.406Z,14.48
2022-12-11T17:00:26.939Z,14.77
2022-12-11T17:02:55.866Z,15.48
2022-12-11T17:05:25.790Z,15.65
2022-12-11T17:07:55.145Z,15.60
2022-12-11T17:10:23.987Z,14.65
2022-12-11T17:12:54.780Z,15.98
2022-12-11T17:15:23.441Z,16.10
2022-12-11T17:17:54.048Z,15.90
2022-12-11T17:20:22.968Z,15.30
2022-12-11T17:22:51.738Z,16.20
2022-12-11T17:25:22.723Z,14.73
2022-12-11T17:27:51.982Z,15.85
2022-12-11T17:30:21.384Z,16.45
2022-12-11T17:32:50.683Z,15.10
2022-12-11T17:35:20.699Z,15.13
2022-12-11T17:37:49.977Z,15.93
2022-12-11T17:40:20.918Z,15.38
2022-12-11T17:42:53.095Z,16.92
2022-12-11T17:45:22.209Z,15.60
2022-12-11T17:47:51.277Z,15.20
2022-12-11T17:50:21.565Z,15.18
2022-12-11T17:52:50.141Z,16.33
2022-12-11T17:55:19.597Z,17.67
2022-12-11T17:57:49.249Z,15.00
2022-12-11T18:00:19.013Z,15.48
2022-12-11T18:02:47.684Z,17.45
2022-12-11T18:05:17.116Z,18.58
2022-12-11T18:07:47.369Z,17.17
2022-12-11T18:10:16.611Z,16.87
2022-12-11T18:12:45.680Z,15.68
2022-12-11T18:15:15.159Z,16.38
2022-12-11T18:17:43.806Z,16.88
2022-12-11T18:20:16.040Z,16.08
2022-12-11T18:22:46.409Z,15.73
2022-12-11T18:25:15.796Z,15.38
2022-12-11T18:27:44.979Z,15.60
2022-12-11T18:30:15.315Z,15.82
2022-12-11T18:32:45.591Z,14.40
2022-12-11T18:35:14.745Z,14.63
2022-12-11T18:37:44.149Z,15.15
2022-12-11T18:40:14.321Z,15.20
2022-12-11T18:42:43.198Z,16.30
2022-12-11T18:45:12.705Z,17.63
2022-12-11T18:47:41.935Z,16.40
2022-12-11T18:50:10.804Z,15.07
2022-12-11T18:52:39.898Z,16.48
2022-12-11T18:55:09.373Z,15.70
2022-12-11T18:57:40.057Z,15.68
2022-12-11T19:00:15.026Z,15.33
2022-12-11T19:02:44.198Z,15.20
2022-12-11T19:05:14.008Z,15.73
2022-12-11T19:07:43.397Z,15.00
2022-12-11T19:10:12.519Z,14.07
2022-12-11T19:12:43.301Z,13.57
2022-12-11T19:15:13.645Z,13.63
2022-12-11T19:17:43.670Z,14.52
2022-12-11T19:20:40.490Z,13.27
2022-12-11T19:23:06.175Z,13.57
2022-12-11T19:25:35.324Z,14.17
2022-12-11T19:28:05.516Z,14.00
2022-12-11T19:30:34.842Z,13.30
2022-12-11T19:33:03.592Z,13.15
2022-12-11T19:35:32.656Z,13.73
2022-12-11T19:38:01.325Z,13.17
2022-12-11T19:40:30.777Z,14.55
2022-12-11T19:42:59.731Z,14.43
2022-12-11T19:45:31.618Z,13.68
2022-12-11T19:48:00.664Z,15.07
2022-12-11T19:50:29.483Z,15.87
2022-12-11T19:52:58.459Z,14.98
2022-12-11T19:55:27.416Z,14.80
2022-12-11T19:57:57.058Z,14.93
2022-12-11T20:00:26.177Z,15.48
2022-12-11T20:02:56.527Z,13.50
2022-12-11T20:05:25.245Z,14.32
2022-12-11T20:07:54.647Z,13.95
2022-12-11T20:10:23.373Z,14.43
2022-12-11T20:12:52.861Z,14.65
2022-12-11T20:15:21.648Z,14.30
2022-12-11T20:17:54.000Z,14.30
2022-12-11T20:20:26.781Z,13.95
2022-12-11T20:22:57.235Z,14.05
2022-12-11T20:25:26.527Z,15.15
2022-12-11T20:27:56.778Z,14.80
2022-12-11T20:30:26.093Z,14.05
2022-12-11T20:32:55.538Z,15.35
2022-12-11T20:35:26.523Z,14.40
2022-12-11T20:37:55.527Z,14.75
2022-12-11T20:40:25.446Z,13.07
2022-12-11T20:42:54.542Z,13.48
2022-12-11T20:45:23.780Z,14.70
2022-12-11T20:47:53.442Z,15.18
2022-12-11T20:50:22.195Z,15.25
2022-12-11T20:52:52.499Z,15.03
2022-12-11T20:55:21.433Z,14.48
2022-12-11T20:57:50.697Z,14.48
2022-12-11T21:00:20.356Z,14.60
2022-12-11T21:02:51.744Z,15.02
2022-12-11T21:05:21.026Z,14.80
2022-12-11T21:07:49.731Z,14.52
2022-12-11T21:10:20.470Z,14.77
2022-12-11T21:12:49.296Z,15.20
2022-12-11T21:15:18.225Z,14.60
2022-12-11T21:17:47.591Z,14.93
2022-12-11T21:20:17.050Z,14.48
2022-12-11T21:22:46.026Z,14.68
2022-12-11T21:25:15.194Z,14.57
2022-12-11T21:27:45.256Z,14.43
2022-12-11T21:30:15.454Z,14.60
2022-12-11T21:32:44.065Z,14.43
2022-12-11T21:35:14.033Z,13.70
2022-12-11T21:37:43.313Z,14.32
2022-12-11T21:40:13.029Z,13.27
2022-12-11T21:42:41.628Z,14.13
2022-12-11T21:48:02.367Z,13.68
2022-12-11T21:50:31.529Z,14.73
2022-12-11T21:53:01.716Z,13.50
2022-12-11T21:55:30.910Z,13.03
2022-12-11T21:58:00.045Z,12.55
2022-12-11T22:00:30.645Z,13.23
2022-12-11T22:02:59.669Z,13.02
2022-12-11T22:05:28.456Z,13.23
2022-12-11T22:07:57.471Z,12.33
2022-12-11T22:10:26.802Z,13.30
2022-12-11T22:12:56.414Z,12.73
2022-12-11T22:15:26.870Z,12.85
2022-12-11T22:18:01.178Z,12.05
2022-12-11T22:20:30.759Z,13.27
2022-12-11T22:23:00.460Z,12.55
2022-12-11T22:25:30.694Z,13.00
2022-12-11T22:27:59.882Z,12.85
2022-12-11T22:30:29.241Z,11.73
2022-12-11T22:32:59.279Z,12.20
2022-12-11T22:35:28.844Z,11.98
2022-12-11T22:37:57.809Z,11.10
2022-12-11T22:40:27.003Z,11.75
2022-12-11T22:42:55.867Z,10.43
2022-12-11T22:45:25.461Z,10.23
2022-12-11T22:47:54.695Z,11.15
2022-12-11T22:50:26.726Z,10.35
2022-12-11T22:52:55.656Z,10.93
2022-12-11T22:55:24.263Z,10.60
2022-12-11T22:57:53.331Z,10.93
2022-12-11T23:00:22.848Z,10.90
2022-12-11T23:02:51.823Z,11.55
2022-12-11T23:05:20.967Z,10.75
2022-12-11T23:07:51.333Z,10.90
2022-12-11T23:10:20.194Z,10.47
2022-12-11T23:12:49.756Z,11.35
2022-12-11T23:15:18.914Z,12.05
2022-12-11T23:17:47.947Z,11.30
2022-12-11T23:20:17.114Z,11.23
2022-12-11T23:22:46.181Z,12.10
2022-12-11T23:25:17.324Z,10.98
2022-12-11T23:27:46.710Z,10.88
2022-12-11T23:30:15.565Z,12.02
2022-12-11T23:32:44.608Z,11.30
2022-12-11T23:35:13.553Z,12.03
2022-12-11T23:37:43.829Z,12.48
2022-12-11T23:40:14.406Z,12.52
2022-12-11T23:42:44.934Z,12.60
2022-12-11T23:45:14.487Z,12.07
2022-12-11T23:47:43.729Z,12.03
2022-12-11T23:50:12.805Z,12.13
2022-12-11T23:53:01.328Z,12.23
2022-12-11T23:55:38.307Z,12.50
2022-12-11T23:58:11.057Z,11.82
